| time (UTC) | temp F | wind direction | speed knots | gust knots | rain 1hr in | rain 24hr in | rain mn in | humidity % | barometer mb |
| 20260505223044 | 63 | 299 | 0.0 | 2.6 | 0.00 | 0.00 | 0.00 | 71 | 1015.7 |
| 20260505221540 | 62 | 157 | 0.9 | 5.2 | 0.00 | 0.00 | 0.00 | 72 | 1015.8 |
| 20260505220057 | 62 | 0 | 0.0 | 4.3 | 0.00 | 0.00 | 0.00 | 72 | 1015.9 |
| 20260505214549 | 63 | 221 | 0.0 | 3.5 | 0.00 | 0.00 | 0.00 | 70 | 1015.9 |
| 20260505213046 | 63 | 0 | 0.0 | 1.7 | 0.00 | 0.00 | 0.00 | 72 | 1015.9 |
| 20260505211548 | 62 | 0 | 0.0 | 1.7 | 0.00 | 0.00 | 0.00 | 73 | 1016.0 |
| 20260505210050 | 61 | 225 | 0.0 | 3.5 | 0.00 | 0.00 | 0.00 | 74 | 1016.1 |
| 20260505204550 | 61 | 221 | 1.7 | 2.6 | 0.00 | 0.00 | 0.00 | 74 | 1016.2 |
| 20260505203049 | 60 | 261 | 2.6 | 5.2 | 0.00 | 0.00 | 0.00 | 75 | 1016.2 |
| 20260505201544 | 61 | 229 | 0.9 | 2.6 | 0.00 | 0.00 | 0.00 | 73 | 1016.2 |
| 20260505200049 | 61 | 221 | 0.9 | 3.5 | 0.00 | 0.00 | 0.00 | 74 | 1016.3 |
| 20260505194545 | 62 | 254 | 0.0 | 2.6 | 0.00 | 0.00 | 0.00 | 72 | 1016.3 |
| 20260505193045 | 60 | 0 | 0.0 | 1.7 | 0.00 | 0.00 | 0.00 | 76 | 1016.4 |
| 20260505191555 | 58 | 199 | 0.0 | 3.5 | 0.00 | 0.00 | 0.00 | 77 | 1016.4 |
| 20260505190045 | 59 | 184 | 0.0 | 2.6 | 0.00 | 0.00 | 0.00 | 78 | 1016.5 |
| 20260505184548 | 58 | 184 | 0.9 | 4.3 | 0.00 | 0.00 | 0.00 | 78 | 1016.6 |
| 20260505183041 | 57 | 222 | 0.9 | 4.3 | 0.00 | 0.00 | 0.00 | 80 | 1016.6 |
| 20260505181543 | 57 | 184 | 0.9 | 2.6 | 0.00 | 0.00 | 0.00 | 82 | 1016.4 |
| 20260505180054 | 56 | 161 | 0.0 | 4.3 | 0.00 | 0.00 | 0.00 | 84 | 1016.5 |
| 20260505174605 | 55 | 180 | 1.7 | 6.1 | 0.00 | 0.00 | 0.00 | 84 | 1016.5 |
| 20260505173044 | 55 | 193 | 0.9 | 3.5 | 0.00 | 0.00 | 0.00 | 84 | 1016.4 |
| 20260505171543 | 55 | 0 | 0.9 | 3.5 | 0.00 | 0.00 | 0.00 | 85 | 1016.3 |
| 20260505170100 | 55 | 193 | 1.7 | 3.5 | 0.00 | 0.00 | 0.00 | 85 | 1016.2 |
| 20260505164543 | 55 | 234 | 1.7 | 3.5 | 0.00 | 0.00 | 0.00 | 86 | 1016.2 |
| 20260505163044 | 54 | 0 | 0.0 | 2.6 | 0.00 | 0.00 | 0.00 | 86 | 1016.1 |
| 20260505161543 | 54 | 223 | 0.9 | 4.3 | 0.00 | 0.00 | 0.00 | 87 | 1016.0 |
| 20260505153053 | 53 | 0 | 0.9 | 3.5 | 0.00 | 0.00 | 0.00 | 89 | 1016.0 |
| 20260505151549 | 53 | 189 | 0.9 | 3.5 | 0.00 | 0.00 | 0.00 | 89 | 1015.9 |
| 20260505124550 | 53 | 175 | 0.9 | 3.5 | 0.00 | 0.00 | 0.00 | 87 | 1015.0 |
| 20260505123107 | 53 | 244 | 0.0 | 2.6 | 0.00 | 0.00 | 0.00 | 86 | 1014.9 |
| 20260505121546 | 53 | 176 | 0.9 | 3.5 | 0.00 | 0.00 | 0.00 | 86 | 1014.9 |
| 20260505120046 | 53 | 183 | 0.9 | 3.5 | 0.00 | 0.00 | 0.00 | 86 | 1014.9 |
| 20260505114610 | 53 | 225 | 0.9 | 2.6 | 0.00 | 0.00 | 0.00 | 86 | 1014.7 |
| 20260505113040 | 53 | 166 | 1.7 | 3.5 | 0.00 | 0.00 | 0.00 | 86 | 1014.7 |
| 20260505111558 | 53 | 140 | 0.0 | 2.6 | 0.00 | 0.00 | 0.00 | 86 | 1014.7 |
| 20260505101545 | 53 | 197 | 0.0 | 3.5 | 0.00 | 0.00 | 0.00 | 86 | 1014.2 |
| 20260505100043 | 53 | 211 | 0.9 | 6.1 | 0.00 | 0.00 | 0.00 | 86 | 1014.2 |
| 20260505094545 | 53 | 210 | 1.7 | 4.3 | 0.00 | 0.00 | 0.00 | 86 | 1014.3 |
| 20260505093043 | 53 | 204 | 0.0 | 5.2 | 0.00 | 0.00 | 0.00 | 85 | 1014.2 |
| 20260505091542 | 53 | 188 | 0.9 | 3.5 | 0.00 | 0.00 | 0.00 | 85 | 1014.0 |
| 20260505090054 | 54 | 216 | 1.7 | 5.2 | 0.00 | 0.00 | 0.00 | 84 | 1014.0 |
| 20260505084541 | 54 | 222 | 1.7 | 5.2 | 0.00 | 0.00 | 0.00 | 84 | 1013.9 |
| 20260505083050 | 54 | 211 | 1.7 | 5.2 | 0.00 | 0.00 | 0.00 | 84 | 1014.0 |
| 20260505081548 | 54 | 0 | 1.7 | 3.5 | 0.00 | 0.00 | 0.00 | 83 | 1013.9 |
| 20260505080042 | 55 | 0 | 0.9 | 7.0 | 0.00 | 0.00 | 0.00 | 82 | 1013.9 |
| 20260505074548 | 55 | 218 | 1.7 | 4.3 | 0.00 | 0.00 | 0.00 | 82 | 1013.7 |
| 20260505073048 | 55 | 198 | 0.0 | 3.5 | 0.00 | 0.00 | 0.00 | 82 | 1013.4 |
| 20260505071547 | 56 | 141 | 0.0 | 2.6 | 0.00 | 0.00 | 0.00 | 81 | 1013.2 |
| 20260505070051 | 56 | 0 | 0.0 | 3.5 | 0.00 | 0.00 | 0.00 | 80 | 1013.1 |
| 20260505064555 | 57 | 0 | 0.9 | 4.3 | 0.00 | 0.00 | 0.00 | 79 | 1012.9 |
| 20260505063050 | 57 | 0 | 1.7 | 7.0 | 0.00 | 0.00 | 0.00 | 79 | 1012.7 |
| 20260505061550 | 58 | 209 | 2.6 | 6.1 | 0.00 | 0.00 | 0.00 | 78 | 1012.6 |
| 20260505060046 | 59 | 234 | 3.5 | 7.0 | 0.00 | 0.00 | 0.00 | 77 | 1012.3 |
| 20260505054553 | 60 | 165 | 1.7 | 5.2 | 0.00 | 0.00 | 0.00 | 75 | 1012.3 |
| 20260505053051 | 61 | 229 | 2.6 | 7.0 | 0.00 | 0.00 | 0.00 | 73 | 1012.2 |
| 20260505051546 | 62 | 207 | 3.5 | 8.7 | 0.00 | 0.00 | 0.00 | 72 | 1012.1 |
| 20260505041609 | 65 | 200 | 3.5 | 8.7 | 0.00 | 0.00 | 0.00 | 69 | 1011.3 |
| 20260505040042 | 66 | 187 | 2.6 | 6.1 | 0.00 | 0.00 | 0.00 | 69 | 1011.0 |
| 20260505034549 | 67 | 196 | 1.7 | 6.1 | 0.00 | 0.00 | 0.00 | 70 | 1010.8 |
| 20260505033043 | 68 | 263 | 4.3 | 8.7 | 0.00 | 0.00 | 0.00 | 70 | 1010.6 |
| 20260505031541 | 68 | 205 | 0.9 | 4.3 | 0.00 | 0.00 | 0.00 | 69 | 1010.4 |
| 20260505030044 | 69 | 197 | 1.7 | 6.1 | 0.00 | 0.00 | 0.00 | 69 | 1010.4 |
| 20260505024547 | 69 | 188 | 1.7 | 6.1 | 0.00 | 0.00 | 0.00 | 68 | 1010.3 |
| 20260505023103 | 70 | 134 | 2.6 | 6.1 | 0.00 | 0.00 | 0.00 | 67 | 1010.3 |
| 20260505021545 | 70 | 203 | 0.9 | 6.1 | 0.00 | 0.00 | 0.00 | 66 | 1010.3 |
| 20260505020040 | 70 | 171 | 1.7 | 7.8 | 0.00 | 0.00 | 0.00 | 65 | 1010.3 |
| 20260505014548 | 71 | 250 | 2.6 | 7.0 | 0.00 | 0.00 | 0.00 | 64 | 1010.3 |
| 20260505013045 | 71 | 155 | 2.6 | 7.0 | 0.00 | 0.00 | 0.00 | 64 | 1010.4 |
| 20260505011543 | 71 | 164 | 2.6 | 8.7 | 0.00 | 0.00 | 0.00 | 64 | 1010.4 |
| 20260505010045 | 71 | 219 | 2.6 | 7.8 | 0.00 | 0.00 | 0.00 | 63 | 1010.4 |
| 20260505004540 | 71 | 269 | 3.5 | 7.8 | 0.00 | 0.00 | 0.00 | 63 | 1010.5 |
| 20260505003039 | 70 | 200 | 4.3 | 10.4 | 0.00 | 0.00 | 0.00 | 64 | 1010.6 |
| 20260505001550 | 71 | 172 | 3.5 | 9.6 | 0.00 | 0.00 | 0.00 | 62 | 1010.7 |
| 20260505000052 | 71 | 153 | 2.6 | 7.8 | 0.00 | 0.00 | 0.00 | 62 | 1010.7 |
| 20260504234546 | 70 | 151 | 5.2 | 12.2 | 0.00 | 0.00 | 0.00 | 62 | 1010.7 |
| 20260504233041 | 70 | 75 | 2.6 | 10.4 | 0.00 | 0.00 | 0.00 | 63 | 1010.8 |
| 20260504231558 | 70 | 176 | 3.5 | 10.4 | 0.00 | 0.00 | 0.00 | 63 | 1011.1 |
| 20260504230049 | 70 | 145 | 2.6 | 7.8 | 0.00 | 0.00 | 0.00 | 62 | 1011.2 |
| 20260504224549 | 69 | 190 | 4.3 | 9.6 | 0.00 | 0.00 | 0.00 | 63 | 1011.5 |